Time;durP1;ratioP1;P1;durP2;ratioP2;P2;SDS_P1;SDS_P2;PMS_P1;PMS_P2;Temp;Humidity;BMP_temperature;BMP_pressure;BME280_temperature;BME280_humidity;BME280_pressure;Samples;Min_cycle;Max_cycle;Signal;HPM_P1;HPM_P2
2022/07/25 00:02:21;;;;;;;10.23;1.52;;;19.80;99.90;;;;;;5018089;28;20068;-59
2022/07/25 00:04:47;;;;;;;8.45;1.55;;;19.80;99.90;;;;;;5026637;28;20498;-59
2022/07/25 00:07:13;;;;;;;7.40;1.52;;;19.70;99.90;;;;;;5011145;28;20021;-58
2022/07/25 00:09:39;;;;;;;6.65;1.52;;;19.70;99.90;;;;;;5010154;28;20147;-59
2022/07/25 00:12:04;;;;;;;7.03;1.77;;;19.80;99.90;;;;;;5013672;28;20021;-59
2022/07/25 00:14:30;;;;;;;9.95;1.77;;;19.70;99.90;;;;;;5010657;28;20049;-59
2022/07/25 00:16:56;;;;;;;6.95;1.90;;;19.80;99.90;;;;;;5015438;28;20116;-59
2022/07/25 00:19:21;;;;;;;6.35;1.85;;;19.80;99.90;;;;;;5017808;28;20022;-60
2022/07/25 00:21:47;;;;;;;10.70;2.08;;;19.90;99.90;;;;;;5010404;28;20036;-59
2022/07/25 00:24:13;;;;;;;10.43;1.83;;;20.00;99.90;;;;;;5012632;28;20104;-59
2022/07/25 00:26:38;;;;;;;10.00;2.25;;;20.00;99.90;;;;;;5009224;28;20034;-58
2022/07/25 00:29:04;;;;;;;9.82;1.85;;;19.90;99.90;;;;;;5022233;28;20056;-59
2022/07/25 00:31:30;;;;;;;10.25;1.90;;;20.00;99.90;;;;;;5010835;28;20389;-59
2022/07/25 00:33:55;;;;;;;9.35;1.90;;;19.90;99.90;;;;;;5010123;28;20431;-59
2022/07/25 00:36:24;;;;;;;10.30;1.92;;;19.90;99.90;;;;;;5017511;28;20084;-59
2022/07/25 00:38:50;;;;;;;8.70;1.90;;;19.90;99.90;;;;;;5015681;28;20026;-59
2022/07/25 00:41:16;;;;;;;8.25;1.83;;;19.90;99.90;;;;;;5016315;28;20076;-59
2022/07/25 00:43:43;;;;;;;8.60;2.13;;;19.90;99.90;;;;;;5007246;28;20052;-59
2022/07/25 00:46:15;;;;;;;6.30;1.70;;;19.90;99.90;;;;;;5020489;28;20036;-59
2022/07/25 00:48:40;;;;;;;16.40;2.25;;;19.90;99.90;;;;;;5006681;28;20560;-58
2022/07/25 00:51:07;;;;;;;12.90;2.03;;;19.90;99.90;;;;;;5017538;28;20065;-60
2022/07/25 00:53:34;;;;;;;7.28;1.60;;;19.90;99.90;;;;;;5018430;28;20030;-59
2022/07/25 00:56:00;;;;;;;10.07;2.00;;;19.90;99.90;;;;;;5010644;28;20090;-59
2022/07/25 00:58:25;;;;;;;11.02;2.22;;;19.90;99.90;;;;;;5008958;28;20038;-60
2022/07/25 01:00:51;;;;;;;10.07;2.17;;;19.90;99.90;;;;;;5010345;28;20473;-59
2022/07/25 01:03:17;;;;;;;10.48;2.80;;;19.90;99.90;;;;;;5011138;28;20026;-59
2022/07/25 01:05:43;;;;;;;13.90;2.58;;;19.90;99.90;;;;;;5007342;28;20025;-59
2022/07/25 01:08:09;;;;;;;11.63;2.47;;;19.80;99.90;;;;;;5009191;28;20040;-59
2022/07/25 01:10:36;;;;;;;9.82;2.10;;;19.80;99.90;;;;;;5002003;28;20109;-59
2022/07/25 01:13:02;;;;;;;12.80;2.45;;;19.80;99.90;;;;;;5017003;28;20038;-59
2022/07/25 01:15:28;;;;;;;11.50;2.50;;;19.80;99.90;;;;;;5013767;28;20033;-61
2022/07/25 01:17:53;;;;;;;15.85;2.67;;;19.80;99.90;;;;;;5022113;28;20025;-59
2022/07/25 01:20:24;;;;;;;11.68;2.53;;;19.70;99.90;;;;;;5024613;28;20037;-59
2022/07/25 01:22:50;;;;;;;14.85;3.10;;;19.70;99.90;;;;;;5014192;28;20112;-60
2022/07/25 01:25:18;;;;;;;16.88;3.33;;;19.80;99.90;;;;;;5004095;28;20073;-59
2022/07/25 01:27:44;;;;;;;8.80;2.47;;;19.70;99.90;;;;;;5017358;28;20062;-59
2022/07/25 01:30:12;;;;;;;9.52;2.97;;;19.70;99.90;;;;;;5016438;28;20374;-59
2022/07/25 01:32:38;;;;;;;13.73;3.85;;;19.80;99.90;;;;;;5014720;28;20036;-60
2022/07/25 01:35:05;;;;;;;9.57;2.70;;;19.80;99.90;;;;;;5019910;28;20033;-59
2022/07/25 01:37:32;;;;;;;12.25;2.53;;;19.80;99.90;;;;;;5016019;28;20084;-59
2022/07/25 01:39:57;;;;;;;11.15;2.28;;;19.70;99.90;;;;;;5001017;28;20091;-60
2022/07/25 01:42:23;;;;;;;14.45;2.80;;;19.70;99.90;;;;;;5013388;28;20448;-60
2022/07/25 01:44:49;;;;;;;11.38;2.55;;;19.60;99.90;;;;;;5016907;28;20030;-60
2022/07/25 01:47:16;;;;;;;10.13;3.33;;;19.60;99.90;;;;;;5015557;28;20026;-59
2022/07/25 01:49:42;;;;;;;11.65;2.65;;;19.60;99.90;;;;;;5013951;28;20029;-58
2022/07/25 01:52:08;;;;;;;10.98;2.33;;;19.60;99.90;;;;;;5012409;28;20037;-59
2022/07/25 01:54:34;;;;;;;7.82;2.78;;;19.60;99.90;;;;;;5020869;28;20033;-59
2022/07/25 01:57:00;;;;;;;12.90;3.13;;;19.50;99.90;;;;;;5016093;28;20029;-59
2022/07/25 01:59:26;;;;;;;14.93;2.65;;;19.60;99.90;;;;;;5012068;28;20037;-59
2022/07/25 02:01:52;;;;;;;10.65;2.65;;;19.60;99.90;;;;;;5018693;28;20490;-59
2022/07/25 02:04:17;;;;;;;12.57;2.47;;;19.60;99.90;;;;;;5014341;28;20505;-59
2022/07/25 02:06:43;;;;;;;10.25;2.58;;;19.50;99.90;;;;;;5016622;28;20464;-59
2022/07/25 02:09:09;;;;;;;11.07;2.92;;;19.50;99.90;;;;;;5011745;28;20530;-59
2022/07/25 02:11:35;;;;;;;12.50;2.67;;;19.40;99.90;;;;;;5015098;28;20359;-59
2022/07/25 02:14:01;;;;;;;8.43;2.33;;;19.30;99.90;;;;;;5014295;28;20034;-59
2022/07/25 02:16:27;;;;;;;9.48;2.53;;;19.30;99.90;;;;;;5011717;28;20493;-59
2022/07/25 02:18:53;;;;;;;7.68;2.42;;;19.30;99.90;;;;;;5019884;28;20029;-59
2022/07/25 02:21:19;;;;;;;13.00;2.65;;;19.30;99.90;;;;;;5010913;28;20036;-60
2022/07/25 02:23:45;;;;;;;12.75;2.67;;;19.30;99.90;;;;;;5019017;28;20397;-59
2022/07/25 02:26:12;;;;;;;11.05;2.42;;;19.30;99.90;;;;;;5013580;28;20030;-59
2022/07/25 02:28:38;;;;;;;9.60;2.60;;;19.30;99.90;;;;;;5008028;28;20030;-59
2022/07/25 02:31:03;;;;;;;15.13;2.75;;;19.30;99.90;;;;;;5019589;28;20026;-58
2022/07/25 02:33:29;;;;;;;15.55;3.58;;;19.30;99.90;;;;;;5021307;28;20402;-59
2022/07/25 02:35:55;;;;;;;9.63;2.45;;;19.30;99.90;;;;;;5008812;28;20037;-60
2022/07/25 02:38:21;;;;;;;8.00;2.60;;;19.30;99.90;;;;;;5022071;28;20431;-60
2022/07/25 02:40:48;;;;;;;12.20;2.47;;;19.40;99.90;;;;;;5017279;28;20032;-60
2022/07/25 02:43:14;;;;;;;7.80;2.20;;;19.40;99.90;;;;;;5003097;28;20160;-60
2022/07/25 02:45:40;;;;;;;13.43;3.75;;;19.50;99.90;;;;;;5016430;28;20033;-60
2022/07/25 02:48:06;;;;;;;16.85;3.30;;;19.50;99.90;;;;;;5018860;28;20033;-60
2022/07/25 02:50:33;;;;;;;9.05;2.83;;;19.40;99.90;;;;;;5024432;28;20029;-59
2022/07/25 02:52:58;;;;;;;12.80;2.60;;;19.30;99.90;;;;;;5010326;28;20482;-60
2022/07/25 02:55:24;;;;;;;11.40;2.65;;;19.30;99.90;;;;;;5015597;28;20036;-60
2022/07/25 02:58:27;;;;;;;14.23;3.75;;;19.30;99.90;;;;;;5011795;28;20130;-60
2022/07/25 03:00:53;;;;;;;13.13;3.85;;;19.10;99.90;;;;;;5012584;28;20026;-59
2022/07/25 03:03:19;;;;;;;18.73;4.30;;;18.90;99.90;;;;;;5010828;28;20034;-60
2022/07/25 03:05:44;;;;;;;13.95;3.30;;;18.90;99.90;;;;;;5010844;28;20172;-59
2022/07/25 03:08:10;;;;;;;14.07;3.83;;;18.70;99.90;;;;;;5012250;28;20033;-59
2022/07/25 03:10:36;;;;;;;15.88;3.53;;;18.70;99.90;;;;;;5013037;28;20554;-58
2022/07/25 03:13:02;;;;;;;17.08;4.38;;;18.70;99.90;;;;;;5010633;28;20141;-59
2022/07/25 03:15:28;;;;;;;16.75;3.72;;;18.70;99.90;;;;;;5010029;28;20044;-58
2022/07/25 03:17:53;;;;;;;17.70;3.40;;;18.70;99.90;;;;;;5011262;28;20393;-59
2022/07/25 03:20:19;;;;;;;13.82;3.83;;;18.70;99.90;;;;;;5012385;28;20057;-59
2022/07/25 03:22:45;;;;;;;16.55;3.42;;;18.70;99.90;;;;;;5010495;28;20026;-59
2022/07/25 03:25:10;;;;;;;16.25;4.30;;;18.60;99.90;;;;;;5011352;28;20034;-59
2022/07/25 03:27:36;;;;;;;16.80;3.75;;;18.60;99.90;;;;;;5011245;28;20054;-59
2022/07/25 03:30:02;;;;;;;16.77;4.13;;;18.60;99.90;;;;;;5012896;28;20121;-59
2022/07/25 03:32:28;;;;;;;14.45;3.65;;;18.70;99.90;;;;;;5019262;28;20022;-60
2022/07/25 03:34:54;;;;;;;19.02;4.53;;;18.60;99.90;;;;;;5004224;28;20486;-60
2022/07/25 03:37:19;;;;;;;12.02;3.85;;;18.60;99.90;;;;;;5010310;28;20034;-59
2022/07/25 03:39:45;;;;;;;15.57;3.38;;;18.60;99.90;;;;;;5008625;28;20038;-59
2022/07/25 03:42:11;;;;;;;20.48;4.50;;;18.70;99.90;;;;;;5022071;23;20129;-58
2022/07/25 03:44:37;;;;;;;11.07;3.10;;;18.70;99.90;;;;;;5013439;28;20046;-60
2022/07/25 03:47:04;;;;;;;13.23;3.90;;;18.70;99.90;;;;;;5010445;28;20120;-60
2022/07/25 03:49:30;;;;;;;13.07;3.95;;;18.70;99.90;;;;;;5017533;28;20489;-58
2022/07/25 03:51:55;;;;;;;19.00;4.55;;;18.70;99.90;;;;;;5007753;28;20083;-59
2022/07/25 03:54:21;;;;;;;14.07;3.92;;;18.60;99.90;;;;;;5016269;28;20076;-59
2022/07/25 03:56:49;;;;;;;16.20;3.58;;;18.60;99.90;;;;;;5001950;28;20030;-59
2022/07/25 03:59:17;;;;;;;19.60;4.60;;;18.60;99.90;;;;;;5019621;28;20428;-59
2022/07/25 04:01:44;;;;;;;16.52;4.10;;;18.60;99.90;;;;;;5017104;28;20054;-59
2022/07/25 04:04:10;;;;;;;19.50;4.53;;;18.60;99.90;;;;;;5010282;28;20022;-59
2022/07/25 04:06:37;;;;;;;14.77;3.53;;;18.60;99.90;;;;;;5011754;28;20034;-58
2022/07/25 04:09:03;;;;;;;16.40;3.65;;;18.50;99.90;;;;;;5014085;28;20505;-59
2022/07/25 04:11:29;;;;;;;18.52;4.35;;;18.60;99.90;;;;;;5013151;28;20045;-59
2022/07/25 04:13:55;;;;;;;21.20;4.35;;;18.60;99.90;;;;;;5011940;28;20495;-59
2022/07/25 04:16:21;;;;;;;13.27;4.47;;;18.60;99.90;;;;;;5019647;28;20029;-59
2022/07/25 04:18:47;;;;;;;19.73;5.68;;;18.60;99.90;;;;;;5014939;28;20164;-59
2022/07/25 04:21:13;;;;;;;21.77;4.18;;;18.60;99.90;;;;;;5009759;28;20038;-59
2022/07/25 04:23:38;;;;;;;18.45;3.55;;;18.50;99.90;;;;;;5015941;28;20030;-59
2022/07/25 04:26:05;;;;;;;20.90;5.22;;;18.50;99.90;;;;;;5018285;28;20025;-59
2022/07/25 04:28:31;;;;;;;17.42;4.00;;;18.50;99.90;;;;;;5014021;28;20026;-59
2022/07/25 04:30:57;;;;;;;14.68;3.90;;;18.50;99.90;;;;;;5018944;28;20390;-59
2022/07/25 04:33:23;;;;;;;16.08;3.97;;;18.50;99.90;;;;;;5018198;28;20033;-59
2022/07/25 04:35:48;;;;;;;15.30;4.28;;;18.50;99.90;;;;;;5016969;28;20044;-58
2022/07/25 04:38:14;;;;;;;19.35;4.05;;;18.50;99.90;;;;;;5008700;28;20038;-58
2022/07/25 04:40:40;;;;;;;20.13;4.57;;;18.50;99.90;;;;;;5022140;28;20017;-60
2022/07/25 04:43:07;;;;;;;17.40;3.75;;;18.40;99.90;;;;;;5012127;28;20073;-59
2022/07/25 04:45:33;;;;;;;15.48;4.22;;;18.40;99.90;;;;;;5017253;28;20033;-59
2022/07/25 04:47:59;;;;;;;19.92;6.05;;;18.30;99.90;;;;;;5022909;28;20018;-59
2022/07/25 04:50:25;;;;;;;17.90;4.05;;;18.40;99.90;;;;;;5016803;28;20441;-59
2022/07/25 04:52:51;;;;;;;21.65;5.97;;;18.40;99.90;;;;;;5024314;28;20034;-59
2022/07/25 04:55:17;;;;;;;15.48;4.13;;;18.40;99.90;;;;;;5012653;28;20034;-59
2022/07/25 04:57:43;;;;;;;17.67;4.82;;;18.40;99.90;;;;;;5024136;28;20428;-60
2022/07/25 05:00:10;;;;;;;18.20;3.78;;;18.50;99.90;;;;;;5014108;28;20079;-60
2022/07/25 05:02:37;;;;;;;14.23;3.65;;;18.50;99.90;;;;;;5028834;28;20461;-61
2022/07/25 05:05:03;;;;;;;12.05;3.60;;;18.50;99.90;;;;;;5009412;28;20033;-59
2022/07/25 05:07:29;;;;;;;17.73;5.00;;;18.60;99.90;;;;;;5020714;28;20048;-60
2022/07/25 05:09:55;;;;;;;13.18;3.47;;;18.60;99.90;;;;;;5026439;28;20029;-60
2022/07/25 05:12:21;;;;;;;15.68;3.30;;;18.70;99.90;;;;;;5027255;28;20025;-60
2022/07/25 05:14:47;;;;;;;23.35;3.47;;;18.70;99.90;;;;;;5016469;28;20417;-60
2022/07/25 05:17:12;;;;;;;15.15;3.38;;;18.70;99.90;;;;;;5021805;28;20022;-60
2022/07/25 05:19:38;;;;;;;15.32;3.20;;;18.60;99.90;;;;;;5028330;28;20112;-59
2022/07/25 05:22:04;;;;;;;18.05;4.00;;;18.60;99.90;;;;;;5015356;28;20021;-60
2022/07/25 05:24:34;;;;;;;13.57;2.60;;;18.50;99.90;;;;;;5025080;28;20045;-59
2022/07/25 05:27:00;;;;;;;12.88;2.95;;;18.50;99.90;;;;;;5020724;28;20076;-59
2022/07/25 05:29:26;;;;;;;13.98;3.47;;;18.40;99.90;;;;;;5013406;28;20174;-60
2022/07/25 05:31:52;;;;;;;13.68;3.85;;;18.50;99.90;;;;;;5012051;28;20089;-60
2022/07/25 05:34:18;;;;;;;21.02;3.20;;;18.40;99.90;;;;;;5024104;28;20076;-60
2022/07/25 05:36:43;;;;;;;13.85;3.60;;;18.40;99.90;;;;;;5020590;28;20030;-60
2022/07/25 05:39:09;;;;;;;15.90;3.42;;;18.40;99.90;;;;;;5023887;28;20427;-59
2022/07/25 05:41:35;;;;;;;14.30;3.35;;;18.40;99.90;;;;;;5025674;28;20534;-60
2022/07/25 05:44:00;;;;;;;12.45;4.38;;;18.50;99.90;;;;;;5022537;28;20045;-59
2022/07/25 05:46:26;;;;;;;9.27;2.28;;;18.70;99.90;;;;;;5019996;28;20029;-60
2022/07/25 05:48:52;;;;;;;18.52;2.60;;;18.90;99.90;;;;;;5026771;28;20075;-59
2022/07/25 05:51:17;;;;;;;13.88;2.67;;;18.90;99.90;;;;;;5008361;28;20482;-60
2022/07/25 05:53:43;;;;;;;15.77;2.63;;;18.90;99.90;;;;;;5012073;28;20041;-60
2022/07/25 05:56:09;;;;;;;11.85;2.50;;;19.00;99.90;;;;;;5011681;28;20049;-59
2022/07/25 05:58:36;;;;;;;10.60;3.03;;;19.10;99.90;;;;;;5011994;28;20026;-59
2022/07/25 06:01:02;;;;;;;12.43;2.55;;;19.10;99.90;;;;;;5012335;28;20084;-59
2022/07/25 06:03:28;;;;;;;10.30;2.38;;;19.10;99.90;;;;;;5011256;28;20041;-59
2022/07/25 06:05:55;;;;;;;11.57;2.83;;;19.10;99.90;;;;;;5012965;28;20041;-60
2022/07/25 06:08:21;;;;;;;13.05;2.83;;;19.10;99.90;;;;;;5013610;28;20152;-59
2022/07/25 06:10:46;;;;;;;16.10;3.00;;;19.00;99.90;;;;;;5013018;28;20121;-62
2022/07/25 06:13:12;;;;;;;19.60;2.88;;;19.00;99.90;;;;;;5012680;28;20025;-60
2022/07/25 06:15:38;;;;;;;10.40;3.28;;;19.10;99.90;;;;;;5012595;28;20541;-60
2022/07/25 06:18:03;;;;;;;17.35;2.60;;;19.10;99.90;;;;;;5012271;28;20117;-60
2022/07/25 06:20:29;;;;;;;9.48;1.98;;;19.30;99.90;;;;;;5016217;28;20124;-60
2022/07/25 06:22:55;;;;;;;13.35;2.78;;;19.30;99.90;;;;;;5009098;28;20053;-60
2022/07/25 06:25:21;;;;;;;12.00;1.95;;;19.40;99.90;;;;;;5024071;28;20079;-60
2022/07/25 06:27:46;;;;;;;9.10;2.40;;;19.30;99.90;;;;;;5010828;28;20034;-60
2022/07/25 06:30:12;;;;;;;8.20;1.83;;;19.30;99.90;;;;;;5022473;28;20029;-60
2022/07/25 06:32:38;;;;;;;12.65;2.35;;;19.20;99.90;;;;;;5008955;28;20021;-59
2022/07/25 06:35:04;;;;;;;13.95;2.92;;;19.20;99.90;;;;;;5011575;28;20421;-59
2022/07/25 06:37:30;;;;;;;10.25;1.23;;;19.20;99.90;;;;;;5013408;28;20041;-60
2022/07/25 06:39:55;;;;;;;11.73;1.80;;;19.20;99.90;;;;;;5008556;28;20029;-59
2022/07/25 06:42:21;;;;;;;8.25;2.08;;;19.20;99.90;;;;;;5021166;28;20527;-58
2022/07/25 06:44:47;;;;;;;7.53;1.67;;;19.20;99.90;;;;;;5011283;28;20051;-59
2022/07/25 06:47:12;;;;;;;8.52;1.30;;;19.30;99.90;;;;;;5008696;28;20092;-58
2022/07/25 06:49:40;;;;;;;8.93;1.90;;;19.30;99.90;;;;;;5011870;28;20041;-59
2022/07/25 06:52:06;;;;;;;13.88;2.03;;;19.30;99.90;;;;;;5009169;28;20037;-59
2022/07/25 06:54:32;;;;;;;10.73;1.98;;;19.20;99.90;;;;;;5022577;28;20060;-59
2022/07/25 06:56:58;;;;;;;9.80;1.88;;;19.20;99.90;;;;;;5010058;28;20040;-59
2022/07/25 06:59:24;;;;;;;11.32;2.60;;;19.30;99.90;;;;;;5019469;28;20120;-59
2022/07/25 07:01:49;;;;;;;13.60;2.65;;;19.20;99.90;;;;;;5016551;28;20116;-60
2022/07/25 07:04:15;;;;;;;8.73;1.98;;;19.30;99.90;;;;;;5012278;28;20091;-59
2022/07/25 07:06:41;;;;;;;7.30;1.52;;;19.50;99.90;;;;;;5013320;28;20080;-59
2022/07/25 07:09:07;;;;;;;12.13;2.63;;;19.60;99.90;;;;;;5012827;28;20364;-60
2022/07/25 07:11:33;;;;;;;15.13;2.85;;;19.60;99.90;;;;;;5006325;28;20025;-59
2022/07/25 07:14:01;;;;;;;9.90;2.05;;;19.90;99.90;;;;;;5005683;28;20492;-60
2022/07/25 07:16:30;;;;;;;11.25;2.00;;;20.00;99.90;;;;;;5013864;28;20025;-59
2022/07/25 07:18:56;;;;;;;11.40;1.98;;;20.00;99.90;;;;;;5015025;28;20040;-60
2022/07/25 07:21:23;;;;;;;8.93;2.03;;;19.90;99.90;;;;;;5011767;28;20528;-60
2022/07/25 07:23:49;;;;;;;9.80;2.30;;;20.00;99.90;;;;;;5010536;28;20109;-60
2022/07/25 07:26:15;;;;;;;7.82;2.17;;;20.20;99.90;;;;;;4996228;28;20562;-60
2022/07/25 07:28:41;;;;;;;8.80;1.77;;;20.10;99.90;;;;;;5002868;28;20080;-59
2022/07/25 07:31:07;;;;;;;11.30;2.17;;;19.90;99.90;;;;;;5009011;28;20437;-60
2022/07/25 07:33:34;;;;;;;8.65;2.13;;;19.90;99.90;;;;;;5011263;28;20080;-60
2022/07/25 07:36:00;;;;;;;13.43;1.70;;;20.00;99.90;;;;;;5011966;28;20068;-60
2022/07/25 07:38:26;;;;;;;9.70;1.38;;;20.10;99.90;;;;;;5012102;28;20026;-60
2022/07/25 07:40:52;;;;;;;9.00;2.45;;;20.10;99.90;;;;;;5010425;28;20083;-60
2022/07/25 07:43:18;;;;;;;4.32;0.75;;;20.10;99.90;;;;;;5004553;28;20073;-60
2022/07/25 07:45:44;;;;;;;9.13;1.42;;;19.90;99.90;;;;;;5011434;28;20034;-60
2022/07/25 07:48:11;;;;;;;7.82;1.27;;;19.80;99.90;;;;;;5008078;28;20026;-59
2022/07/25 07:50:37;;;;;;;12.15;1.40;;;19.70;99.90;;;;;;5014149;28;20036;-60
2022/07/25 07:53:03;;;;;;;10.82;2.10;;;19.80;99.90;;;;;;5011961;28;20133;-61
2022/07/25 07:55:44;;;;;;;9.48;1.25;;;19.50;99.90;;;;;;5007814;28;20135;-60
2022/07/25 07:58:14;;;;;;;12.88;1.48;;;19.50;99.90;;;;;;5010815;28;20095;-60
2022/07/25 08:00:41;;;;;;;7.05;1.05;;;19.60;99.90;;;;;;5000967;28;20033;-61
2022/07/25 08:03:08;;;;;;;6.78;1.40;;;19.70;99.90;;;;;;5021268;28;20026;-60
2022/07/25 08:05:40;;;;;;;6.63;1.10;;;19.70;99.90;;;;;;4999292;28;20088;-61
2022/07/25 08:08:08;;;;;;;8.63;1.45;;;19.80;99.90;;;;;;5008767;28;20049;-60
2022/07/25 08:10:37;;;;;;;6.50;1.20;;;19.90;99.90;;;;;;5004011;28;20037;-60
2022/07/25 08:13:18;;;;;;;10.10;1.58;;;20.00;99.90;;;;;;5011718;28;20040;-60
2022/07/25 08:15:46;;;;;;;8.43;2.10;;;20.20;99.90;;;;;;5004786;28;20038;-60
2022/07/25 08:18:12;;;;;;;14.60;2.03;;;20.40;99.90;;;;;;5008116;28;20605;-59
2022/07/25 08:20:39;;;;;;;9.77;1.00;;;20.30;99.90;;;;;;5010821;28;20029;-60
2022/07/25 08:23:06;;;;;;;8.13;1.30;;;20.20;99.90;;;;;;5014718;28;20094;-60
2022/07/25 08:25:32;;;;;;;6.05;1.35;;;20.20;99.90;;;;;;5013578;28;20022;-60
2022/07/25 08:27:58;;;;;;;6.72;1.48;;;20.40;99.90;;;;;;5005743;28;20512;-59
2022/07/25 08:30:23;;;;;;;10.05;1.65;;;20.50;99.90;;;;;;5007711;28;20022;-60
2022/07/25 08:32:52;;;;;;;10.30;1.17;;;20.40;99.90;;;;;;5008398;28;20049;-60
2022/07/25 08:35:19;;;;;;;5.95;1.38;;;20.10;99.90;;;;;;5013458;28;20442;-61
2022/07/25 08:37:45;;;;;;;10.15;1.60;;;20.20;99.90;;;;;;5008815;28;20363;-60
2022/07/25 08:40:12;;;;;;;7.68;1.10;;;20.20;99.90;;;;;;5007436;28;20034;-60
2022/07/25 08:42:39;;;;;;;8.20;1.20;;;20.00;99.90;;;;;;5010476;28;20486;-59
2022/07/25 08:45:09;;;;;;;10.50;1.20;;;20.10;99.90;;;;;;5016155;28;20104;-59
2022/07/25 08:47:35;;;;;;;7.88;1.50;;;20.00;99.90;;;;;;5006798;28;20025;-60
2022/07/25 08:50:08;;;;;;;5.10;0.80;;;20.10;99.90;;;;;;5007722;28;20521;-62
2022/07/25 08:52:34;;;;;;;7.32;1.48;;;20.40;99.90;;;;;;5004949;28;20030;-61
2022/07/25 08:55:09;;;;;;;5.43;0.90;;;20.80;99.90;;;;;;5016331;28;20035;-59
2022/07/25 08:57:37;;;;;;;8.50;1.42;;;20.70;99.90;;;;;;5006967;28;20036;-60
2022/07/25 09:00:07;;;;;;;10.60;1.83;;;20.60;99.90;;;;;;5008045;28;20026;-60
2022/07/25 09:02:33;;;;;;;3.38;0.82;;;20.60;99.90;;;;;;4997701;28;20029;-60
2022/07/25 09:04:58;;;;;;;6.13;1.00;;;20.80;99.90;;;;;;5005761;28;20030;-58
2022/07/25 09:07:38;;;;;;;8.00;0.80;;;21.00;99.90;;;;;;5007513;28;20030;-59
2022/07/25 09:10:19;;;;;;;6.93;1.25;;;20.70;99.90;;;;;;4998809;28;20560;-59
2022/07/25 09:12:57;;;;;;;5.07;0.80;;;20.70;99.90;;;;;;5002732;28;20046;-59
2022/07/25 09:15:29;;;;;;;11.57;1.13;;;20.80;99.90;;;;;;5009732;28;20029;-59
2022/07/25 09:17:56;;;;;;;4.95;1.02;;;21.20;99.90;;;;;;5005582;28;20030;-59
2022/07/25 09:20:22;;;;;;;7.55;1.10;;;21.50;99.90;;;;;;5007010;28;20033;-59
2022/07/25 09:22:48;;;;;;;10.55;1.80;;;21.50;99.90;;;;;;5001956;28;20034;-60
2022/07/25 09:25:27;;;;;;;10.48;1.55;;;21.50;99.90;;;;;;4997836;28;20458;-60
2022/07/25 09:27:52;;;;;;;6.22;2.03;;;21.30;99.90;;;;;;5006436;28;20065;-60
2022/07/25 09:30:19;;;;;;;2.65;1.08;;;21.20;99.90;;;;;;5003306;28;20049;-59
2022/07/25 09:32:44;;;;;;;5.15;0.95;;;21.10;99.90;;;;;;5003465;28;20033;-59
2022/07/25 09:35:11;;;;;;;8.05;1.77;;;21.00;99.90;;;;;;5004896;28;20494;-60
2022/07/25 09:37:37;;;;;;;5.68;1.00;;;21.20;99.90;;;;;;5007500;28;20036;-60
2022/07/25 09:40:13;;;;;;;5.72;1.13;;;21.40;99.90;;;;;;5005531;28;20026;-61
2022/07/25 09:42:39;;;;;;;7.95;0.80;;;21.40;99.90;;;;;;5003863;28;20045;-61
2022/07/25 09:45:13;;;;;;;7.75;0.73;;;21.60;99.90;;;;;;5015794;28;20491;-62
2022/07/25 09:48:00;;;;;;;13.50;1.30;;;21.60;99.90;;;;;;5012196;28;20022;-61
2022/07/25 09:50:28;;;;;;;6.22;0.77;;;21.90;99.90;;;;;;5005872;28;20030;-61
2022/07/25 09:52:58;;;;;;;5.82;0.90;;;21.60;99.90;;;;;;5008407;28;21219;-61
2022/07/25 09:55:25;;;;;;;;;;;21.70;99.90;;;;;;5011048;28;20174;-59
2022/07/25 09:57:51;;;;;;;10.40;1.10;;;21.90;99.90;;;;;;5006827;28;19999;-59
2022/07/25 10:00:28;;;;;;;10.90;1.92;;;21.90;99.90;;;;;;5008257;28;20103;-60
2022/07/25 10:02:53;;;;;;;9.18;1.38;;;22.30;99.90;;;;;;5007752;28;20468;-59
2022/07/25 10:05:49;;;;;;;12.63;1.80;;;22.40;99.90;;;;;;5014291;28;20371;-59
2022/07/25 10:08:15;;;;;;;8.52;1.48;;;22.40;99.90;;;;;;5009796;28;20108;-59
2022/07/25 10:10:41;;;;;;;7.60;1.23;;;22.50;99.90;;;;;;5004830;28;20033;-59
2022/07/25 10:13:14;;;;;;;12.55;2.67;;;22.40;99.90;;;;;;5000808;28;20046;-60
2022/07/25 10:15:39;;;;;;;10.63;1.30;;;22.30;99.90;;;;;;5009102;28;20026;-59
2022/07/25 10:18:07;;;;;;;5.47;1.05;;;22.30;99.90;;;;;;5010579;28;20025;-59
2022/07/25 10:20:34;;;;;;;9.55;1.80;;;21.90;99.90;;;;;;5011365;28;20026;-59
2022/07/25 10:23:00;;;;;;;5.93;1.20;;;21.60;99.90;;;;;;5004383;28;20036;-59
2022/07/25 10:25:26;;;;;;;12.07;1.52;;;21.60;99.90;;;;;;5008832;28;20113;-60
2022/07/25 10:27:59;;;;;;;7.65;1.33;;;21.80;99.90;;;;;;5010564;28;20072;-60
2022/07/25 10:30:35;;;;;;;7.07;1.45;;;21.80;99.90;;;;;;5007745;28;20061;-60
2022/07/25 10:33:10;;;;;;;6.00;1.08;;;22.00;99.90;;;;;;5002580;28;20026;-60
2022/07/25 10:35:36;;;;;;;10.95;1.50;;;21.90;99.90;;;;;;5012610;28;20370;-60
2022/07/25 10:38:04;;;;;;;7.68;1.67;;;21.50;99.90;;;;;;5011453;28;20105;-60
2022/07/25 10:40:38;;;;;;;6.70;1.73;;;21.20;99.90;;;;;;5011405;28;20037;-61
2022/07/25 10:43:17;;;;;;;6.45;1.15;;;20.90;99.90;;;;;;5005492;28;20050;-61
2022/07/25 10:45:50;;;;;;;9.65;1.50;;;21.10;99.90;;;;;;5013318;28;20037;-60
2022/07/25 10:48:24;;;;;;;13.90;1.60;;;21.30;99.90;;;;;;5009233;28;20029;-60
2022/07/25 10:50:56;;;;;;;9.00;1.40;;;21.30;99.90;;;;;;5007909;28;20482;-60
2022/07/25 10:53:27;;;;;;;9.20;1.45;;;21.40;99.90;;;;;;5010640;28;20041;-59
2022/07/25 10:56:18;;;;;;;7.75;1.20;;;21.50;99.90;;;;;;5009153;28;20030;-60
2022/07/25 10:58:47;;;;;;;8.77;1.27;;;21.80;99.90;;;;;;5008668;28;20030;-61
2022/07/25 11:01:14;;;;;;;8.38;1.20;;;22.20;99.90;;;;;;5006664;28;20026;-61
2022/07/25 11:03:45;;;;;;;12.65;1.83;;;22.00;99.90;;;;;;5006972;28;20035;-59
2022/07/25 11:06:13;;;;;;;6.45;1.30;;;21.40;99.90;;;;;;5007987;28;20034;-60
2022/07/25 11:08:40;;;;;;;8.90;1.35;;;20.70;99.90;;;;;;4993746;28;20065;-60
2022/07/25 11:11:08;;;;;;;9.63;1.63;;;20.30;99.90;;;;;;5004212;28;20108;-60
2022/07/25 11:13:38;;;;;;;10.98;1.52;;;20.50;99.90;;;;;;5013295;28;20141;-60
2022/07/25 11:16:04;;;;;;;12.82;1.58;;;20.70;99.90;;;;;;4996409;28;20060;-60
2022/07/25 11:18:36;;;;;;;10.80;1.55;;;21.10;99.90;;;;;;4999391;28;20241;-60
2022/07/25 11:21:03;;;;;;;9.40;1.67;;;21.00;99.90;;;;;;5002085;28;20113;-60
2022/07/25 11:23:29;;;;;;;13.85;1.95;;;20.60;99.90;;;;;;5000044;28;20377;-60
2022/07/25 11:26:14;;;;;;;13.50;1.88;;;20.30;99.90;;;;;;5005805;28;20104;-59
2022/07/25 11:29:23;;;;;;;14.88;1.92;;;20.00;99.90;;;;;;5004015;28;20169;-61
2022/07/25 11:32:10;;;;;;;10.32;1.58;;;19.70;99.90;;;;;;4998880;28;20029;-60
2022/07/25 11:34:42;;;;;;;13.95;2.15;;;19.50;99.90;;;;;;5005161;28;20141;-60
2022/07/25 11:37:11;;;;;;;8.68;1.40;;;19.50;99.90;;;;;;5007175;28;20133;-60
2022/07/25 11:39:39;;;;;;;11.13;1.50;;;19.70;99.90;;;;;;5005906;28;20045;-59
2022/07/25 11:42:06;;;;;;;9.52;1.75;;;19.90;99.90;;;;;;5011105;28;20034;-60
2022/07/25 11:44:42;;;;;;;12.20;1.58;;;19.90;99.90;;;;;;5003256;28;20049;-60
2022/07/25 11:47:21;;;;;;;6.70;1.50;;;20.30;99.90;;;;;;5005984;28;20128;-59
2022/07/25 11:49:49;;;;;;;7.50;1.42;;;20.60;99.90;;;;;;5004081;28;20458;-60
2022/07/25 11:52:34;;;;;;;6.57;1.13;;;20.80;99.90;;;;;;5005063;28;20045;-60
2022/07/25 11:55:07;;;;;;;9.82;2.30;;;20.60;99.90;;;;;;5002171;28;20038;-60
2022/07/25 11:57:35;;;;;;;13.85;2.05;;;20.60;99.90;;;;;;5002372;28;20025;-60
2022/07/25 12:00:04;;;;;;;8.88;1.60;;;20.50;99.90;;;;;;5011902;28;20030;-61
2022/07/25 12:02:31;;;;;;;9.23;1.60;;;20.20;99.90;;;;;;5005595;28;20022;-60
2022/07/25 12:05:06;;;;;;;11.63;1.13;;;20.10;99.90;;;;;;5008680;28;20027;-60
2022/07/25 12:07:43;;;;;;;9.23;1.70;;;20.10;99.90;;;;;;5012277;28;20117;-61
2022/07/25 12:10:13;;;;;;;10.93;2.17;;;20.20;99.90;;;;;;5007313;28;20169;-60
2022/07/25 12:12:47;;;;;;;13.52;2.13;;;20.30;99.90;;;;;;5007950;28;20656;-59
2022/07/25 12:15:15;;;;;;;8.32;1.73;;;20.20;99.90;;;;;;5009773;28;20026;-60
2022/07/25 12:17:42;;;;;;;6.88;1.25;;;20.30;99.90;;;;;;5006879;28;20033;-59
2022/07/25 12:20:16;;;;;;;14.90;2.55;;;20.10;99.90;;;;;;5011410;28;20034;-59
2022/07/25 12:22:42;;;;;;;6.10;1.17;;;20.30;99.90;;;;;;5005520;28;20061;-59
2022/07/25 12:25:08;;;;;;;9.85;1.33;;;20.60;99.90;;;;;;5008502;28;20108;-59
2022/07/25 12:27:34;;;;;;;6.00;0.93;;;21.00;99.90;;;;;;5009983;28;20100;-59
2022/07/25 12:30:00;;;;;;;4.40;1.10;;;21.00;99.90;;;;;;5011912;28;20038;-60
2022/07/25 12:32:26;;;;;;;5.82;1.80;;;21.10;99.90;;;;;;5016557;28;20028;-59
2022/07/25 12:34:51;;;;;;;7.38;1.33;;;21.00;99.90;;;;;;5012478;28;20037;-60
2022/07/25 12:37:17;;;;;;;8.20;1.10;;;21.00;99.90;;;;;;5010659;28;20030;-61
2022/07/25 12:39:43;;;;;;;8.35;1.52;;;21.00;99.90;;;;;;4997396;28;20121;-60
2022/07/25 12:42:08;;;;;;;8.10;1.27;;;21.00;99.90;;;;;;5011670;28;20044;-60
2022/07/25 12:44:35;;;;;;;11.85;1.95;;;20.80;99.90;;;;;;5008783;28;20073;-61